Time;durP1;ratioP1;P1;durP2;ratioP2;P2;SDS_P1;SDS_P2;PMS_P1;PMS_P2;Temp;Humidity;BMP_temperature;BMP_pressure;BME280_temperature;BME280_humidity;BME280_pressure;Samples;Min_cycle;Max_cycle;Signal;HPM_P1;HPM_P2
2021/10/19 00:00:14;;;;;;;43.58;24.23;;;6.90;98.70;;;;;;5044066;28;20051;-96
2021/10/19 00:02:51;;;;;;;38.55;22.48;;;6.90;98.80;;;;;;5046084;28;20033;-96
2021/10/19 00:05:17;;;;;;;47.20;24.40;;;6.80;99.00;;;;;;5042942;28;20120;-96
2021/10/19 00:07:43;;;;;;;41.42;23.95;;;6.80;99.20;;;;;;5051952;28;20053;-95
2021/10/19 00:10:12;;;;;;;39.20;23.52;;;6.70;99.30;;;;;;5046412;28;20494;-96
2021/10/19 00:12:57;;;;;;;41.42;24.80;;;6.60;99.50;;;;;;5050896;28;20025;-96
2021/10/19 00:15:30;;;;;;;40.38;24.42;;;6.60;99.60;;;;;;5063680;28;20025;-96
2021/10/19 00:17:56;;;;;;;40.20;24.17;;;6.60;99.80;;;;;;5053131;28;20052;-96
2021/10/19 00:20:41;;;;;;;39.25;24.40;;;6.50;99.90;;;;;;5050213;28;20048;-95
2021/10/19 00:23:07;;;;;;;41.03;24.52;;;6.50;99.90;;;;;;5055138;28;20048;-96
2021/10/19 00:25:33;;;;;;;41.65;25.48;;;6.50;99.90;;;;;;5051375;28;20021;-96
2021/10/19 00:27:59;;;;;;;43.58;25.50;;;6.40;99.90;;;;;;5048553;28;20024;-96
2021/10/19 00:30:26;;;;;;;41.03;24.77;;;6.40;99.90;;;;;;5048421;28;20029;-96
2021/10/19 00:32:52;;;;;;;41.00;24.40;;;6.40;99.90;;;;;;5051423;28;20052;-96
2021/10/19 00:35:19;;;;;;;42.20;24.65;;;6.30;99.90;;;;;;5049375;28;20044;-96
2021/10/19 00:37:50;;;;;;;44.33;26.27;;;6.30;99.90;;;;;;5049466;28;20115;-96
2021/10/19 00:40:20;;;;;;;46.70;25.08;;;6.30;99.90;;;;;;5071886;28;20097;-96
2021/10/19 00:43:05;;;;;;;42.60;24.92;;;6.20;99.90;;;;;;5054015;28;20029;-96
2021/10/19 00:45:47;;;;;;;44.05;25.65;;;6.30;99.90;;;;;;5046631;28;20096;-96
2021/10/19 00:48:16;;;;;;;44.92;24.27;;;6.40;99.90;;;;;;5048749;28;20030;-96
2021/10/19 00:50:42;;;;;;;43.55;24.63;;;6.40;99.90;;;;;;5048003;28;20024;-96
2021/10/19 00:53:33;;;;;;;44.95;25.25;;;6.50;99.90;;;;;;5043197;28;20365;-96
2021/10/19 01:02:49;;;;;;;39.13;24.40;;;6.70;99.90;;;;;;4975001;28;20053;-96
2021/10/19 01:05:20;;;;;;;42.40;24.13;;;6.70;99.90;;;;;;4998603;28;20033;-96
2021/10/19 01:07:47;;;;;;;38.08;24.30;;;6.80;99.90;;;;;;5028926;28;20033;-96
2021/10/19 01:10:14;;;;;;;34.38;23.90;;;6.80;99.90;;;;;;5039371;28;20029;-96
2021/10/19 01:12:42;;;;;;;40.13;23.45;;;6.80;99.90;;;;;;5032242;28;20017;-96
2021/10/19 01:15:14;;;;;;;39.35;23.75;;;6.80;99.90;;;;;;5024777;28;20029;-95
2021/10/19 01:17:45;;;;;;;42.03;24.85;;;6.80;99.90;;;;;;5050419;28;20037;-96
2021/10/19 01:20:37;;;;;;;42.00;23.50;;;6.80;99.90;;;;;;5028350;28;20033;-96
2021/10/19 01:23:55;;;;;;;;;;;;;;;;;;;;;
2021/10/19 01:29:38;;;;;;;36.40;21.52;;;7.00;99.90;;;;;;5041408;28;20113;-96
2021/10/19 01:32:14;;;;;;;43.22;24.13;;;7.00;99.90;;;;;;5026410;28;20053;-96
2021/10/19 01:34:40;;;;;;;40.25;24.02;;;7.10;99.90;;;;;;5024239;28;20026;-96
2021/10/19 01:37:26;;;;;;;42.35;25.25;;;7.00;99.90;;;;;;5021189;28;20025;-96
2021/10/19 01:39:51;;;;;;;43.15;24.02;;;6.90;99.90;;;;;;5019250;28;20037;-95
2021/10/19 01:42:22;;;;;;;37.13;23.90;;;7.00;99.90;;;;;;5018544;28;20357;-96
2021/10/19 01:45:04;;;;;;;36.95;23.25;;;6.90;99.90;;;;;;5018296;28;20539;-96
2021/10/19 01:47:34;;;;;;;43.42;24.60;;;7.00;99.90;;;;;;5018675;28;20029;-96
2021/10/19 01:50:00;;;;;;;40.00;24.77;;;7.00;99.90;;;;;;5018497;28;20025;-96
2021/10/19 01:52:26;;;;;;;41.58;24.15;;;7.00;99.90;;;;;;5018472;28;20036;-96
2021/10/19 01:54:52;;;;;;;39.33;24.67;;;6.90;99.90;;;;;;5031465;28;20050;-96
2021/10/19 01:57:18;;;;;;;48.53;26.40;;;6.90;99.90;;;;;;5040719;28;20424;-96
2021/10/19 01:59:44;;;;;;;46.95;25.73;;;6.80;99.90;;;;;;5037472;28;20028;-96
2021/10/19 02:02:15;;;;;;;38.83;24.52;;;6.70;99.90;;;;;;5038565;28;20060;-96
2021/10/19 02:04:43;;;;;;;38.78;23.50;;;6.70;99.90;;;;;;5038866;28;20049;-96
2021/10/19 02:07:09;;;;;;;37.30;23.10;;;6.60;99.90;;;;;;5036014;28;20021;-96
2021/10/19 02:09:35;;;;;;;39.90;24.17;;;6.60;99.90;;;;;;5034764;28;20017;-96
2021/10/19 02:12:09;;;;;;;43.50;25.10;;;6.60;99.90;;;;;;5038705;28;20030;-96
2021/10/19 02:15:26;;;;;;;42.28;24.02;;;6.50;99.90;;;;;;5041852;28;20068;-96
2021/10/19 02:18:11;;;;;;;39.92;24.67;;;6.50;99.90;;;;;;5047457;28;20104;-96
2021/10/19 02:20:50;;;;;;;39.63;24.80;;;6.40;99.90;;;;;;5040897;28;20030;-96
2021/10/19 02:23:55;;;;;;;41.70;25.05;;;6.30;99.90;;;;;;5039685;28;20021;-96
2021/10/19 02:26:37;;;;;;;43.47;26.17;;;6.30;99.90;;;;;;4991810;28;20031;-96
2021/10/19 02:57:31;;;;;;;44.75;24.85;;;6.30;99.90;;;;;;4924455;29;20155;-96
2021/10/19 03:00:11;;;;;;;42.63;24.65;;;6.30;99.90;;;;;;4924163;29;20036;-96
2021/10/19 03:02:37;;;;;;;45.38;25.67;;;6.30;99.90;;;;;;4901746;29;20036;-92
2021/10/19 03:05:04;;;;;;;43.72;25.83;;;6.10;99.90;;;;;;4904699;28;20451;-93
2021/10/19 03:07:29;;;;;;;52.33;27.33;;;5.90;99.90;;;;;;4996689;28;20022;-94
2021/10/19 03:09:55;;;;;;;49.97;26.92;;;5.80;99.90;;;;;;4996746;28;20426;-94
2021/10/19 03:12:21;;;;;;;45.35;26.88;;;5.70;99.90;;;;;;4996655;28;20028;-94
2021/10/19 03:14:46;;;;;;;47.33;26.48;;;5.70;99.90;;;;;;4996447;28;20022;-95
2021/10/19 03:17:12;;;;;;;46.35;27.48;;;5.70;99.90;;;;;;4996653;28;20474;-93
2021/10/19 03:19:38;;;;;;;42.90;26.73;;;5.70;99.90;;;;;;4996503;28;20026;-93
2021/10/19 03:22:04;;;;;;;45.65;26.73;;;5.60;99.90;;;;;;4998359;28;20026;-94
2021/10/19 03:24:29;;;;;;;46.92;28.42;;;5.50;99.90;;;;;;5033262;28;20041;-94
2021/10/19 03:26:55;;;;;;;46.30;25.58;;;5.40;99.90;;;;;;5033274;28;20026;-94
2021/10/19 03:29:22;;;;;;;48.17;27.52;;;5.40;99.90;;;;;;5033269;28;20025;-93
2021/10/19 16:25:21;;;;;;;93.30;41.25;;;4.80;85.90;;;;;;5082569;28;20400;-91
2021/10/19 16:27:46;;;;;;;107.13;49.10;;;4.70;85.60;;;;;;5070332;28;20028;-91
2021/10/19 16:30:13;;;;;;;113.38;51.25;;;4.60;87.20;;;;;;5070156;28;20028;-92
2021/10/19 16:32:39;;;;;;;122.35;54.42;;;4.60;88.60;;;;;;5070284;28;20029;-92
2021/10/19 16:35:05;;;;;;;125.90;56.20;;;4.60;89.60;;;;;;5070427;28;20044;-92
2021/10/19 16:37:31;;;;;;;121.47;58.17;;;4.60;90.30;;;;;;5070174;28;20079;-92
2021/10/19 16:39:57;;;;;;;130.70;58.88;;;4.60;90.70;;;;;;5070115;28;20021;-92
2021/10/19 16:42:23;;;;;;;150.77;68.80;;;4.70;91.00;;;;;;5070070;28;20021;-92
2021/10/19 16:44:48;;;;;;;132.32;63.83;;;4.70;91.40;;;;;;5069955;28;20032;-93
2021/10/19 16:47:14;;;;;;;132.85;62.08;;;4.70;91.70;;;;;;5069992;28;20021;-92
2021/10/19 16:49:40;;;;;;;142.80;64.53;;;4.70;91.80;;;;;;5069884;28;20498;-92
2021/10/19 16:52:06;;;;;;;212.50;102.53;;;4.80;92.10;;;;;;5070017;28;20025;-92
2021/10/19 16:54:32;;;;;;;235.25;112.88;;;4.80;92.10;;;;;;5069976;28;20028;-93
2021/10/19 16:56:58;;;;;;;203.23;96.10;;;4.80;92.30;;;;;;5069748;28;20116;-92
2021/10/19 16:59:24;;;;;;;203.55;105.25;;;4.80;92.40;;;;;;5070185;28;20482;-91
2021/10/19 17:01:50;;;;;;;210.52;111.50;;;4.80;92.50;;;;;;5069809;28;20058;-92
2021/10/19 17:04:16;;;;;;;169.30;90.53;;;4.90;92.60;;;;;;5069829;28;20033;-92
2021/10/19 17:06:43;;;;;;;154.10;79.15;;;4.90;92.60;;;;;;5079179;28;20070;-92
2021/10/19 17:09:11;;;;;;;160.40;78.57;;;4.90;92.70;;;;;;5089839;28;20020;-92
2021/10/19 17:11:36;;;;;;;159.07;78.18;;;4.90;92.70;;;;;;5089732;28;20024;-92
2021/10/19 17:14:02;;;;;;;160.65;75.88;;;4.90;92.70;;;;;;5074973;28;20082;-92
2021/10/19 17:16:28;;;;;;;146.00;73.82;;;4.90;92.80;;;;;;5048961;28;20067;-93
2021/10/19 17:18:54;;;;;;;151.25;74.45;;;4.90;92.80;;;;;;5061231;28;20167;-92
2021/10/19 17:21:20;;;;;;;149.93;71.03;;;4.90;92.80;;;;;;5068855;28;20111;-91
2021/10/19 17:23:45;;;;;;;135.43;67.68;;;4.90;92.70;;;;;;5069230;28;20045;-91
2021/10/19 17:26:12;;;;;;;138.05;64.80;;;4.90;92.70;;;;;;5069254;28;20029;-91
2021/10/19 17:28:38;;;;;;;137.30;64.10;;;4.90;92.70;;;;;;5069350;28;20025;-95
2021/10/19 17:31:04;;;;;;;128.57;62.80;;;4.90;92.70;;;;;;5069373;28;20459;-94
2021/10/19 17:33:31;;;;;;;139.77;62.63;;;4.90;92.70;;;;;;5069060;28;20052;-93
2021/10/19 17:35:58;;;;;;;234.88;113.28;;;4.80;92.80;;;;;;5059879;28;20063;-93
2021/10/19 17:38:25;;;;;;;165.82;81.20;;;4.80;92.80;;;;;;5055768;28;20119;-93
2021/10/19 17:40:51;;;;;;;167.70;83.28;;;4.80;92.90;;;;;;5055745;28;20029;-93
2021/10/19 17:43:17;;;;;;;152.98;73.78;;;4.80;93.00;;;;;;5055586;28;20471;-93
2021/10/19 17:45:44;;;;;;;169.70;83.00;;;4.70;93.00;;;;;;5055594;28;20025;-93
2021/10/19 17:48:11;;;;;;;146.40;72.75;;;4.70;93.10;;;;;;5055798;28;20518;-92
2021/10/19 17:50:38;;;;;;;141.52;68.75;;;4.70;93.10;;;;;;5055603;28;20036;-92
2021/10/19 17:53:06;;;;;;;139.25;66.78;;;4.70;93.00;;;;;;5055577;28;20082;-93
2021/10/19 17:55:33;;;;;;;134.98;64.25;;;4.70;93.00;;;;;;5055480;28;20021;-93
2021/10/19 17:57:59;;;;;;;126.88;63.03;;;4.60;93.20;;;;;;5055262;28;20471;-94
2021/10/19 18:00:24;;;;;;;128.68;59.10;;;4.60;93.30;;;;;;5055229;28;20031;-93
2021/10/19 18:02:50;;;;;;;126.30;58.97;;;4.50;93.60;;;;;;5055513;28;20044;-93
2021/10/19 18:05:16;;;;;;;124.65;56.60;;;4.40;93.90;;;;;;5056217;28;20060;-92
2021/10/19 18:07:50;;;;;;;110.85;53.08;;;4.40;93.90;;;;;;5055523;28;20028;-94
2021/10/19 18:10:16;;;;;;;112.63;55.45;;;4.30;94.10;;;;;;5055648;28;20379;-93
2021/10/19 18:12:41;;;;;;;108.63;53.63;;;4.30;94.00;;;;;;5055400;28;20045;-94
2021/10/19 18:15:07;;;;;;;100.32;51.60;;;4.30;94.10;;;;;;5055274;28;20067;-93
2021/10/19 18:17:33;;;;;;;108.80;55.10;;;4.30;94.20;;;;;;5055310;28;20063;-94
2021/10/19 18:19:59;;;;;;;106.65;53.35;;;4.20;94.20;;;;;;5055113;28;20060;-93
2021/10/19 18:22:25;;;;;;;104.10;50.67;;;4.20;94.30;;;;;;5055122;28;20032;-95
2021/10/19 18:24:51;;;;;;;109.20;53.38;;;4.20;94.20;;;;;;5054841;28;20057;-93
2021/10/19 18:27:17;;;;;;;99.18;49.78;;;4.20;94.20;;;;;;5055118;28;20057;-95
2021/10/19 18:29:43;;;;;;;116.28;60.05;;;4.10;94.40;;;;;;5055018;28;20107;-94
2021/10/19 18:32:10;;;;;;;104.43;56.38;;;4.10;94.40;;;;;;5054986;28;20018;-94
2021/10/19 18:34:35;;;;;;;103.68;54.85;;;4.10;94.40;;;;;;5054963;28;20483;-94
2021/10/19 18:37:01;;;;;;;106.43;53.20;;;4.00;94.40;;;;;;5055106;28;20048;-94
2021/10/19 18:39:29;;;;;;;116.20;58.15;;;4.00;94.50;;;;;;5054704;28;20070;-94
2021/10/19 18:41:55;;;;;;;120.53;61.22;;;3.90;94.70;;;;;;5054829;28;20476;-93
2021/10/19 18:44:21;;;;;;;126.13;65.30;;;3.90;94.70;;;;;;5054465;28;20032;-93
2021/10/19 18:46:48;;;;;;;129.45;65.15;;;3.90;94.70;;;;;;5053749;28;20471;-93
2021/10/19 18:49:14;;;;;;;139.38;68.00;;;3.90;94.70;;;;;;5054373;28;20102;-94
2021/10/19 18:51:40;;;;;;;127.00;67.03;;;4.00;94.60;;;;;;5054727;28;20475;-93
2021/10/19 18:54:06;;;;;;;134.23;66.72;;;4.00;94.60;;;;;;5054572;28;20040;-93
2021/10/19 18:56:32;;;;;;;123.35;62.47;;;4.00;94.50;;;;;;5054623;28;20379;-93
2021/10/19 18:59:02;;;;;;;136.63;72.43;;;4.00;94.50;;;;;;5054412;28;20025;-94
2021/10/19 19:01:28;;;;;;;148.00;80.32;;;4.00;94.50;;;;;;5054787;28;20025;-93
2021/10/19 19:03:54;;;;;;;180.77;98.35;;;4.00;94.50;;;;;;5054239;28;20120;-93
2021/10/19 19:06:22;;;;;;;197.18;107.32;;;3.90;94.50;;;;;;5054361;28;20063;-94
2021/10/19 19:08:48;;;;;;;179.27;99.72;;;3.90;94.40;;;;;;5055207;28;20124;-93
2021/10/19 19:11:14;;;;;;;155.90;81.78;;;4.00;94.40;;;;;;5054174;28;20079;-93
2021/10/19 19:13:40;;;;;;;149.85;79.10;;;3.90;94.40;;;;;;5054329;28;20025;-93
2021/10/19 19:16:06;;;;;;;145.23;77.22;;;3.90;94.40;;;;;;5054218;28;20060;-93
2021/10/19 19:18:32;;;;;;;146.98;75.03;;;3.90;94.40;;;;;;5054364;28;20043;-93
2021/10/19 19:20:58;;;;;;;145.05;73.53;;;3.80;94.40;;;;;;5053898;28;20471;-94
2021/10/19 19:23:24;;;;;;;146.73;74.22;;;3.80;94.40;;;;;;5049083;28;20046;-94
2021/10/19 19:25:49;;;;;;;161.15;78.97;;;3.80;94.40;;;;;;5017423;28;20055;-93
2021/10/19 19:28:15;;;;;;;147.32;74.13;;;3.80;94.40;;;;;;5017491;28;20489;-94
2021/10/19 19:30:43;;;;;;;153.02;74.20;;;3.80;94.50;;;;;;5017303;28;20053;-95
2021/10/19 19:33:11;;;;;;;160.95;76.93;;;3.70;94.50;;;;;;5001217;28;20053;-94
2021/10/19 19:35:37;;;;;;;172.65;79.00;;;3.70;94.50;;;;;;5017309;28;20468;-95
2021/10/19 19:38:05;;;;;;;158.20;77.20;;;3.70;94.60;;;;;;5017391;28;20026;-95
2021/10/19 19:40:31;;;;;;;159.73;75.18;;;3.60;94.70;;;;;;5017330;28;20460;-95
2021/10/19 19:43:00;;;;;;;156.68;74.10;;;3.60;94.80;;;;;;5017253;28;20487;-95
2021/10/19 19:45:26;;;;;;;160.15;75.55;;;3.50;94.80;;;;;;5001317;28;20468;-95
2021/10/19 19:47:52;;;;;;;153.27;72.90;;;3.50;94.80;;;;;;5017167;28;20456;-95
2021/10/19 19:50:21;;;;;;;146.73;71.03;;;3.50;94.90;;;;;;5017217;28;20028;-95
2021/10/19 19:52:47;;;;;;;154.73;71.78;;;3.50;94.90;;;;;;5016988;28;20033;-95
2021/10/19 19:55:14;;;;;;;162.60;74.15;;;3.50;94.90;;;;;;5016956;28;20048;-96
2021/10/19 19:57:40;;;;;;;193.25;90.80;;;3.50;94.90;;;;;;5016927;28;20025;-93
2021/10/19 20:00:14;;;;;;;248.40;118.60;;;3.50;94.80;;;;;;5017035;28;20022;-93
2021/10/19 20:02:44;;;;;;;224.68;111.40;;;3.60;94.80;;;;;;5017067;28;20021;-92
2021/10/19 20:05:11;;;;;;;177.23;84.82;;;3.60;94.80;;;;;;5016914;28;20022;-94
2021/10/19 20:07:37;;;;;;;153.02;73.00;;;3.60;94.60;;;;;;5016914;28;20036;-93
2021/10/19 20:10:05;;;;;;;164.45;72.35;;;3.60;94.60;;;;;;5016846;28;20460;-93
2021/10/19 20:12:31;;;;;;;149.98;69.93;;;3.60;94.70;;;;;;5017020;28;20032;-93
2021/10/19 20:14:57;;;;;;;157.70;72.78;;;3.50;94.60;;;;;;5016833;28;20037;-91
2021/10/19 20:17:23;;;;;;;156.00;70.30;;;3.50;94.70;;;;;;5016857;28;20061;-89
2021/10/19 20:19:49;;;;;;;158.10;69.90;;;3.40;94.80;;;;;;5016882;28;20035;-89
2021/10/19 20:22:16;;;;;;;147.43;66.03;;;3.40;94.80;;;;;;5016982;28;20668;-89
2021/10/19 20:24:42;;;;;;;142.70;63.13;;;3.30;94.80;;;;;;5016599;28;20076;-89
2021/10/19 20:27:08;;;;;;;128.15;62.22;;;3.40;94.80;;;;;;5016799;28;20065;-89
2021/10/19 20:29:34;;;;;;;127.75;57.90;;;3.40;94.80;;;;;;5016683;28;20473;-89
2021/10/19 20:32:03;;;;;;;116.60;54.22;;;3.40;94.60;;;;;;5016631;28;20025;-89
2021/10/19 20:34:28;;;;;;;121.20;53.83;;;3.40;94.50;;;;;;5016500;28;20022;-89
2021/10/19 20:36:54;;;;;;;113.18;52.65;;;3.50;94.50;;;;;;5034154;28;20116;-90
2021/10/19 20:39:20;;;;;;;199.60;84.70;;;3.40;94.40;;;;;;5016540;28;20056;-89
2021/10/19 20:41:45;;;;;;;204.82;98.47;;;3.50;94.30;;;;;;5016910;28;20053;-89
2021/10/19 20:44:11;;;;;;;206.85;102.28;;;3.50;94.20;;;;;;5034001;28;20081;-89
2021/10/19 20:46:37;;;;;;;152.50;69.15;;;3.40;94.10;;;;;;5016692;28;20025;-89
2021/10/19 20:49:03;;;;;;;121.97;57.97;;;3.40;94.20;;;;;;5016537;28;20017;-89
2021/10/19 20:51:29;;;;;;;124.97;59.65;;;3.40;94.20;;;;;;5016449;28;20026;-92
2021/10/19 20:53:55;;;;;;;118.90;52.95;;;3.40;94.20;;;;;;5016060;28;20022;-92
2021/10/19 20:56:21;;;;;;;115.20;54.38;;;3.30;94.30;;;;;;5016392;28;20029;-94
2021/10/19 20:58:47;;;;;;;114.80;51.95;;;3.30;94.20;;;;;;5016464;28;20029;-94
2021/10/19 21:01:13;;;;;;;106.32;49.08;;;3.20;94.30;;;;;;5016476;28;20044;-94
2021/10/19 21:03:38;;;;;;;111.15;51.80;;;3.20;94.60;;;;;;5016232;28;20033;-95
2021/10/19 21:06:04;;;;;;;111.50;49.90;;;3.10;94.50;;;;;;5016345;28;20029;-94
2021/10/19 21:08:30;;;;;;;106.53;47.92;;;3.00;94.60;;;;;;5016501;28;20026;-94
2021/10/19 21:10:56;;;;;;;115.68;47.47;;;2.90;94.80;;;;;;5018198;28;20365;-95
2021/10/19 21:13:21;;;;;;;105.97;47.90;;;2.90;94.80;;;;;;5020704;28;20025;-95
2021/10/19 21:15:47;;;;;;;98.53;44.13;;;2.90;94.80;;;;;;5020184;28;20495;-95
2021/10/19 21:18:14;;;;;;;97.70;44.75;;;2.90;94.80;;;;;;5019896;28;20109;-94
2021/10/19 21:20:40;;;;;;;101.32;44.30;;;2.90;94.90;;;;;;5019994;28;20468;-94
2021/10/19 21:23:07;;;;;;;108.65;45.17;;;2.90;95.00;;;;;;5021251;28;20373;-95
2021/10/19 21:25:33;;;;;;;93.45;43.05;;;2.90;94.90;;;;;;5039539;28;20047;-94
2021/10/19 21:27:59;;;;;;;111.97;47.10;;;2.90;94.90;;;;;;5039686;28;20067;-95
2021/10/19 21:30:28;;;;;;;101.70;46.13;;;2.90;94.90;;;;;;5039657;28;20021;-95
2021/10/19 21:32:55;;;;;;;106.70;47.97;;;2.90;94.80;;;;;;5039741;28;20025;-95
2021/10/19 21:35:22;;;;;;;116.65;49.00;;;3.00;94.80;;;;;;5039332;28;20025;-94
2021/10/19 21:37:48;;;;;;;108.80;47.70;;;3.00;94.80;;;;;;5039408;28;20494;-95
2021/10/19 21:40:14;;;;;;;113.53;50.00;;;3.00;94.80;;;;;;5039264;28;20033;-95
2021/10/19 21:42:40;;;;;;;105.00;47.85;;;3.00;94.80;;;;;;5039406;28;20025;-96
2021/10/19 21:45:09;;;;;;;102.70;45.92;;;2.90;94.80;;;;;;5039224;28;20025;-95
2021/10/19 21:47:35;;;;;;;99.70;44.08;;;2.90;94.80;;;;;;5039252;28;20109;-95
2021/10/19 21:50:02;;;;;;;90.95;42.63;;;2.90;94.80;;;;;;5039218;28;20119;-95
2021/10/19 21:52:27;;;;;;;98.80;44.63;;;2.90;95.10;;;;;;5039295;28;20031;-95
2021/10/19 21:54:55;;;;;;;95.22;42.17;;;2.90;94.80;;;;;;5039315;28;20025;-94
2021/10/19 21:57:25;;;;;;;96.07;42.83;;;2.90;94.70;;;;;;5038969;28;20079;-95
2021/10/19 21:59:52;;;;;;;86.83;40.20;;;2.90;94.70;;;;;;5038989;28;20052;-95
2021/10/19 22:02:20;;;;;;;84.85;40.65;;;2.90;94.70;;;;;;5038925;28;20043;-95
2021/10/19 22:04:48;;;;;;;85.95;40.20;;;2.90;94.60;;;;;;5038820;28;20514;-94
2021/10/19 22:07:14;;;;;;;89.88;39.83;;;2.80;94.60;;;;;;5038816;28;20057;-94
2021/10/19 22:09:41;;;;;;;84.85;41.13;;;2.80;94.60;;;;;;5038799;28;20048;-94
2021/10/19 22:12:07;;;;;;;85.85;39.97;;;2.80;94.50;;;;;;5038799;28;20060;-95
2021/10/19 22:14:33;;;;;;;88.20;40.15;;;2.70;94.70;;;;;;5038800;28;20028;-94
2021/10/19 22:16:59;;;;;;;84.55;41.55;;;2.70;94.90;;;;;;5039052;28;20060;-95
2021/10/19 22:19:25;;;;;;;89.78;43.33;;;2.60;94.90;;;;;;5038731;28;20426;-95
2021/10/19 22:21:52;;;;;;;88.78;43.15;;;2.50;95.00;;;;;;5038535;28;20029;-95
2021/10/19 22:27:03;;;;;;;93.07;43.10;;;2.50;95.30;;;;;;5056831;28;20044;-95
2021/10/19 22:29:29;;;;;;;93.28;46.58;;;2.40;95.40;;;;;;5055091;28;20025;-95
2021/10/19 22:31:55;;;;;;;104.00;49.42;;;2.40;95.50;;;;;;5054979;28;20040;-95
2021/10/19 22:34:20;;;;;;;103.82;50.50;;;2.40;95.50;;;;;;5054928;28;20033;-94
2021/10/19 22:36:46;;;;;;;114.35;56.40;;;2.40;95.60;;;;;;5055051;28;20478;-94
2021/10/19 22:39:12;;;;;;;116.45;58.83;;;2.30;95.60;;;;;;5055141;28;20055;-95
2021/10/19 22:41:38;;;;;;;124.55;59.58;;;2.30;95.70;;;;;;5054906;28;20099;-95
2021/10/19 22:44:05;;;;;;;136.82;63.05;;;2.30;95.70;;;;;;5054656;28;20032;-95
2021/10/19 22:46:31;;;;;;;134.50;61.95;;;2.30;95.80;;;;;;5055061;28;20021;-96
2021/10/19 22:48:57;;;;;;;140.27;64.90;;;2.30;95.80;;;;;;5054733;28;20031;-95
2021/10/19 22:51:23;;;;;;;147.18;66.82;;;2.30;95.80;;;;;;5054703;28;20104;-95
2021/10/19 22:53:49;;;;;;;135.00;63.17;;;2.30;95.80;;;;;;5054557;28;20434;-95
2021/10/19 22:56:15;;;;;;;138.35;63.83;;;2.30;95.80;;;;;;5054672;28;20033;-95
2021/10/19 22:58:40;;;;;;;143.40;65.43;;;2.20;95.80;;;;;;5054613;28;20029;-94
2021/10/19 23:01:06;;;;;;;135.38;61.70;;;2.30;95.90;;;;;;5054725;28;20032;-96
2021/10/19 23:03:32;;;;;;;128.18;61.33;;;2.20;95.80;;;;;;5054380;28;20506;-94
2021/10/19 23:05:58;;;;;;;138.07;61.45;;;2.20;95.80;;;;;;5054487;28;20029;-95
2021/10/19 23:08:23;;;;;;;137.50;63.95;;;2.20;95.80;;;;;;5054224;28;20411;-95
2021/10/19 23:10:50;;;;;;;137.25;61.53;;;2.20;96.10;;;;;;5054287;28;20078;-95
2021/10/19 23:13:16;;;;;;;134.38;61.50;;;2.10;96.00;;;;;;5054188;28;20021;-94
2021/10/19 23:15:42;;;;;;;108.80;51.50;;;2.20;96.00;;;;;;5054227;28;20025;-96
2021/10/19 23:18:07;;;;;;;121.53;57.80;;;2.20;96.00;;;;;;5054158;28;20032;-94
2021/10/19 23:20:33;;;;;;;122.95;56.13;;;2.20;96.00;;;;;;5054100;28;20021;-95
2021/10/19 23:22:59;;;;;;;126.35;57.75;;;2.20;96.00;;;;;;5053924;28;20051;-96
2021/10/19 23:25:25;;;;;;;129.95;59.28;;;2.20;96.00;;;;;;5037492;28;20021;-95
2021/10/19 23:27:50;;;;;;;132.68;57.95;;;2.10;96.00;;;;;;5037318;28;20040;-94
2021/10/19 23:30:16;;;;;;;127.60;57.53;;;2.10;96.00;;;;;;5037516;28;20031;-95
2021/10/19 23:32:42;;;;;;;127.05;58.17;;;2.10;96.20;;;;;;5036870;28;20021;-95
2021/10/19 23:35:08;;;;;;;133.45;57.58;;;2.00;96.30;;;;;;5037113;28;20497;-94
2021/10/19 23:37:34;;;;;;;143.68;63.75;;;2.00;96.40;;;;;;5037086;28;20049;-95
2021/10/19 23:39:59;;;;;;;140.60;61.33;;;2.00;96.60;;;;;;5037192;28;20032;-94
2021/10/19 23:42:25;;;;;;;123.65;55.65;;;1.90;96.60;;;;;;5037063;28;20459;-94
2021/10/19 23:44:51;;;;;;;147.10;64.18;;;1.90;96.70;;;;;;5037244;28;20036;-96
2021/10/19 23:47:16;;;;;;;139.05;63.88;;;1.90;96.90;;;;;;5037204;28;20388;-95
2021/10/19 23:49:42;;;;;;;143.65;64.00;;;1.90;96.90;;;;;;5037183;28;20020;-95
2021/10/19 23:52:08;;;;;;;135.20;62.83;;;1.90;96.90;;;;;;5036920;28;20032;-96
2021/10/19 23:54:34;;;;;;;123.57;56.15;;;1.90;97.00;;;;;;5036921;28;20025;-96
2021/10/19 23:56:59;;;;;;;124.38;55.10;;;1.90;97.10;;;;;;5036968;28;20029;-94
2021/10/19 23:59:25;;;;;;;111.45;50.63;;;1.90;97.10;;;;;;5037822;28;20037;-95
